Flight Track Log - Related Links

Times and Time Zones

All times are in EDT time to prevent confusion due to time zone crossing. See the N33KC flight status page for this flight to view local times or setup timezone preferences in your user account.

Time Position Orientation Groundspeed Altitude Reporting Facility
EDT Latitude Longitude Course Direction KTS MPH feet Rate Location/Type
Wed 09:02:12 PM 47.5092 -122.2861 155° Southeast 142 163 800  Level Seattle Center
Wed 09:02:25 PM 47.5011 -122.2806 155° Southeast 138 159 1,000 880 Climbing Seattle Center
Wed 09:03:27 PM 47.4694 -122.2472 145° Southeast 138 159 1,900 927 Climbing Seattle Center
Wed 09:04:28 PM 47.4369 -122.2128 144° Southeast 142 163 2,900 934 Climbing Seattle Center
Wed 09:05:29 PM 47.4469 -122.1658 73° East 119 137 3,800 885 Climbing Seattle Center
Wed 09:06:30 PM 47.4611 -122.1167 67° East 125 144 4,700 836 Climbing Seattle Center
Wed 09:07:31 PM 47.4747 -122.0658 68° East 129 148 5,500 639 Climbing Seattle Center
Wed 09:08:32 PM 47.4897 -122.0106 68° East 143 165 6,000 585 Climbing Seattle Center
Wed 09:09:34 PM 47.5083 -121.9428 68° East 163 188 6,700 732 Climbing Seattle Center
Wed 09:10:35 PM 47.5247 -121.8825 68° East 162 186 7,500 738 Climbing Seattle Center
Wed 09:11:36 PM 47.5403 -121.8225 69° East 160 184 8,200 787 Climbing Seattle Center
Wed 09:12:37 PM 47.5228 -121.7689 116° Southeast 157 181 9,100 689 Climbing Seattle Center
Wed 09:13:38 PM 47.4778 -121.7572 170° South 152 175 9,600 246 Climbing Seattle Center
Wed 09:14:39 PM 47.4286 -121.7508 175° South 174 200 9,600  Level Seattle Center
Wed 09:15:40 PM 47.3792 -121.7442 175° South 176 203 9,600  Level Seattle Center
Wed 09:16:41 PM 47.3294 -121.7367 174° South 177 204 9,600  Level Seattle Center
Wed 09:17:42 PM 47.2797 -121.7294 174° South 179 206 9,600  Level Seattle Center
Wed 09:18:43 PM 47.2250 -121.7217 174° South 180 207 9,600 295 Level Seattle Center
Wed 09:19:44 PM 47.1783 -121.7147 174° South 170 196 10,200 639 Climbing Seattle Center
Wed 09:20:45 PM 47.1389 -121.7042 170° South 147 169 10,900 590 Climbing Seattle Center
Wed 09:21:46 PM 47.0986 -121.6986 175° South 145 167 11,400 295 Climbing Seattle Center
Wed 09:22:47 PM 47.0492 -121.6922 175° South 165 190 11,500 49 Climbing Seattle Center
Wed 09:23:48 PM 47.0000 -121.6856 175° South 174 200 11,500  Level Seattle Center
Wed 09:24:49 PM 46.9528 -121.6817 177° South 173 199 11,500  Level Seattle Center
Wed 09:25:50 PM 46.9047 -121.6789 178° South 173 199 11,500  Level Seattle Center
Wed 09:26:51 PM 46.8558 -121.6803 181° South 174 200 11,500  Level Seattle Center
Wed 09:27:52 PM 46.8106 -121.7000 197° South 181 208 11,500 49 Level Seattle Center
Wed 09:28:53 PM 46.7578 -121.7297 201° Southwest 180 207 11,600 49 Climbing Seattle Center
Wed 09:29:54 PM 46.7108 -121.7569 202° Southwest 176 203 11,600  Level Seattle Center
Wed 09:30:55 PM 46.6656 -121.7864 204° Southwest 176 203 11,600  Level Seattle Center
Wed 09:31:56 PM 46.6219 -121.8114 201° Southwest 174 200 11,600  Level Seattle Center
Wed 09:32:57 PM 46.5769 -121.8411 204° Southwest 174 200 11,600  Level Seattle Center
Wed 09:33:58 PM 46.5344 -121.8719 207° Southwest 174 200 11,600  Level Seattle Center
Wed 09:34:59 PM 46.4903 -121.9042 207° Southwest 175 201 11,600 -49 Level Seattle Center
Wed 09:36:00 PM 46.4461 -121.9342 205° Southwest 174 200 11,500 -590 Descending Seattle Center
Wed 09:37:01 PM 46.4022 -121.9978 225° Southwest 206 237 10,400 -1,033 Descending Seattle Center
Wed 09:38:02 PM 46.3644 -122.0422 219° Southwest 207 238 9,400 -590 Descending Seattle Center
Wed 09:39:03 PM 46.3117 -122.0889 211° Southwest 201 231 9,200 -98 Descending Seattle Center
Wed 09:40:04 PM 46.2642 -122.1158 201° Southwest 185 213 9,200  Level Seattle Center
Wed 09:41:05 PM 46.2206 -122.1458 205° Southwest 179 206 9,200 148 Level Seattle Center
Wed 09:42:06 PM 46.1886 -122.1947 227° Southwest 169 194 9,500 148 Climbing Seattle Center
Wed 09:43:07 PM 46.2200 -122.2092 342° North 189 217 9,500 -148 Level Seattle Center
Wed 09:44:08 PM 46.1858 -122.1872 156° South 185 213 9,200 -49 Descending Seattle Center
Wed 09:45:09 PM 46.2244 -122.2042 343° North 179 206 9,400 541 Climbing Seattle Center
Wed 09:46:10 PM 46.2464 -122.1375 65° Northeast 180 207 10,300 885 Climbing Seattle Center
Wed 09:47:11 PM 46.2681 -122.0728 64° Northeast 171 197 11,200 787 Climbing Seattle Center
Wed 09:48:12 PM 46.2872 -122.0103 66° East 171 197 11,900 590 Climbing Seattle Center
Wed 09:49:13 PM 46.3058 -121.9494 66° East 173 199 12,400 492 Climbing Seattle Center
Wed 09:50:14 PM 46.3289 -121.8803 64° Northeast 188 216 12,900 541 Climbing Seattle Center
Wed 09:51:15 PM 46.3511 -121.8125 65° Northeast 187 215 13,500 590 Climbing Seattle Center
Wed 09:52:16 PM 46.3733 -121.7433 65° Northeast 189 217 14,100 590 Climbing Seattle Center
Wed 09:53:17 PM 46.3958 -121.6722 65° Northeast 194 223 14,700 590 Climbing Seattle Center
Wed 09:54:18 PM 46.4225 -121.5900 65° Northeast 189 217 15,300 393 Climbing Seattle Center
Wed 09:55:19 PM 46.4475 -121.5119 65° Northeast 210 242 15,500 98 Climbing Seattle Center
Wed 09:56:20 PM 46.4725 -121.4356 65° Northeast 209 241 15,500 49 Level Seattle Center
Wed 09:57:21 PM 46.4986 -121.3547 65° Northeast 217 250 15,600 49 Climbing Seattle Center
Wed 09:58:22 PM 46.5225 -121.2764 66° East 215 247 15,600 -49 Level Seattle Center
Wed 09:59:24 PM 46.5514 -121.1906 64° Northeast 220 253 15,500 -49 Descending Seattle Center
Wed 10:00:25 PM 46.5753 -121.1106 66° East 217 250 15,500  Level Seattle Center
Wed 10:01:26 PM 46.6000 -121.0308 66° East 213 245 15,500 49 Level Seattle Center
Wed 10:02:27 PM 46.6256 -120.9519 65° Northeast 215 247 15,600 49 Climbing Seattle Center
Wed 10:03:28 PM 46.6506 -120.8722 65° Northeast 216 249 15,600  Level Seattle Center
Wed 10:04:29 PM 46.6778 -120.7847 66° East 218 251 15,600  Level Seattle Center
Wed 10:05:30 PM 46.7022 -120.7050 66° East 217 250 15,600  Level Seattle Center
Wed 10:06:31 PM 46.7272 -120.6244 66° East 217 250 15,600  Level Seattle Center
Wed 10:07:32 PM 46.7517 -120.5439 66° East 217 250 15,600  Level Seattle Center
Wed 10:08:34 PM 46.7767 -120.4631 66° East 217 250 15,600  Level Seattle Center
Wed 10:09:35 PM 46.8033 -120.3775 65° Northeast 217 250 15,600  Level Seattle Center
Wed 10:10:36 PM 46.8281 -120.2961 66° East 217 250 15,600  Level Seattle Center
Wed 10:11:37 PM 46.8517 -120.2164 67° East 216 249 15,600  Level Seattle Center
Wed 10:12:38 PM 46.8772 -120.1372 65° Northeast 216 249 15,600  Level Seattle Center
Wed 10:13:39 PM 46.9003 -120.0567 67° East 214 246 15,600  Level Seattle Center
Wed 10:14:41 PM 46.9261 -119.9717 66° East 212 244 15,600 49 Level Seattle Center
Wed 10:15:42 PM 46.9514 -119.8908 65° Northeast 216 249 15,700 49 Climbing Seattle Center
Wed 10:16:43 PM 46.9750 -119.8103 67° East 217 250 15,700  Level Seattle Center
Wed 10:17:44 PM 46.9992 -119.7297 66° East 217 250 15,700  Level Seattle Center
Wed 10:18:45 PM 47.0250 -119.6422 67° East 217 250 15,700  Level Seattle Center
Wed 10:19:46 PM 47.0486 -119.5631 66° East 214 246 15,700  Level Seattle Center
Wed 10:20:47 PM 47.0725 -119.4825 66° East 214 246 15,700  Level Seattle Center
Wed 10:21:49 PM 47.0961 -119.4033 66° East 215 247 15,700 -98 Level Seattle Center
Wed 10:22:50 PM 47.1211 -119.3147 67° East 220 253 15,500 -98 Descending Seattle Center
Wed 10:23:51 PM 47.1411 -119.2289 71° East 228 262 15,500  Level Seattle Center
Wed 10:24:52 PM 47.1675 -119.1439 65° Northeast 214 246 15,500  Level Seattle Center
Wed 10:25:53 PM 47.1914 -119.0639 66° East 215 247 15,500  Level Seattle Center
Wed 10:26:54 PM 47.2147 -118.9847 67° East 213 245 15,500  Level Seattle Center
Wed 10:27:56 PM 47.2375 -118.9036 68° East 215 247 15,500  Level Seattle Center
Wed 10:28:57 PM 47.2639 -118.8147 66° East 221 254 15,500  Level Seattle Center
Wed 10:29:58 PM 47.2889 -118.7325 66° East 221 254 15,500  Level Seattle Center
Wed 10:30:59 PM 47.3125 -118.6508 67° East 218 251 15,500  Level Seattle Center
Wed 10:32:00 PM 47.3353 -118.5675 68° East 219 252 15,500 -98 Level Seattle Center
Wed 10:33:01 PM 47.3619 -118.4786 66° East 220 253 15,300 -344 Descending Seattle Center
Wed 10:34:02 PM 47.3844 -118.3906 69° East 228 262 14,800 -492 Descending Seattle Center
Wed 10:35:03 PM 47.4092 -118.3047 67° East 229 264 14,300 -537 Descending Seattle Center
Wed 10:36:05 PM 47.4344 -118.2189 66° East 229 264 13,700 -780 Descending Seattle Center
Wed 10:37:06 PM 47.4608 -118.1236 68° East 232 267 12,700 -984 Descending Seattle Center
Wed 10:38:07 PM 47.4864 -118.0342 67° East 235 270 11,700 -1,033 Descending Seattle Center
Wed 10:39:08 PM 47.5114 -117.9456 67° East 235 270 10,600 -1,033 Descending Seattle Center
Wed 10:40:09 PM 47.5350 -117.8611 67° East 229 264 9,600 -1,033 Descending Seattle Center
Wed 10:41:10 PM 47.5597 -117.7733 67° East 218 251 8,500 -1,082 Descending Seattle Center
Wed 10:42:11 PM 47.5817 -117.6936 68° East 213 245 7,400 -984 Descending Seattle Center
Wed 10:43:12 PM 47.6033 -117.6158 68° East 209 241 6,500 -885 Descending Seattle Center
Wed 10:44:13 PM 47.6264 -117.5422 65° Northeast 199 229 5,600 -689 Descending Seattle Center
Wed 10:45:14 PM 47.6528 -117.4697 62° Northeast 202 232 5,100 -590 Descending Seattle Center
Wed 10:46:15 PM 47.6750 -117.4089 62° Northeast 172 198 4,400 -976 Descending Seattle Center
Wed 10:47:17 PM 47.7072 -117.3533 49° Northeast 178 205 3,100 -934 Descending Seattle Center
Wed 10:48:17 PM 47.7364 -117.3114 44° Northeast 157 181 2,500 -248 Descending Seattle Center
Wed 10:49:18 PM 47.7139 -117.2794 136° Southeast 133 153 2,600 -148 Climbing Seattle Center
Wed 10:50:19 PM 47.6906 -117.3069 218° Southwest 121 139 2,200 -344 Descending Seattle Center
Wed 10:51:20 PM 47.6814 -117.3267 235° Southwest 79 91 1,900 -148 Descending Seattle Center
Wed 10:52:21 PM 47.6808 -117.3231 103° East 40 46 1,900  Level Seattle Center

Login

Don't have an account? Register now (free) for customized features, flight alerts, and more!